sensor_id;sensor_type;location;lat;lon;timestamp;P1;durP1;ratioP1;P2;durP2;ratioP2
32172;SDS011;18679;45.190;5.722;2022-12-07T00:02:46;15.63;;;7.95;;
32172;SDS011;18679;45.190;5.722;2022-12-07T00:05:47;13.57;;;5.15;;
32172;SDS011;18679;45.190;5.722;2022-12-07T00:08:48;21.67;;;7.60;;
32172;SDS011;18679;45.190;5.722;2022-12-07T00:11:49;10.23;;;5.00;;
32172;SDS011;18679;45.190;5.722;2022-12-07T00:14:51;20.50;;;6.60;;
32172;SDS011;18679;45.190;5.722;2022-12-07T00:17:52;12.45;;;5.60;;
32172;SDS011;18679;45.190;5.722;2022-12-07T00:20:58;17.88;;;7.15;;
32172;SDS011;18679;45.190;5.722;2022-12-07T00:24:04;20.83;;;7.28;;
32172;SDS011;18679;45.190;5.722;2022-12-07T00:27:07;20.90;;;6.22;;
32172;SDS011;18679;45.190;5.722;2022-12-07T00:30:08;12.95;;;6.63;;
32172;SDS011;18679;45.190;5.722;2022-12-07T00:33:10;15.85;;;7.07;;
32172;SDS011;18679;45.190;5.722;2022-12-07T00:36:15;17.30;;;7.22;;
32172;SDS011;18679;45.190;5.722;2022-12-07T00:39:17;13.25;;;5.45;;
32172;SDS011;18679;45.190;5.722;2022-12-07T00:42:18;16.35;;;6.70;;
32172;SDS011;18679;45.190;5.722;2022-12-07T00:45:19;14.18;;;6.07;;
32172;SDS011;18679;45.190;5.722;2022-12-07T00:48:21;16.70;;;7.30;;
32172;SDS011;18679;45.190;5.722;2022-12-07T00:51:23;15.48;;;6.65;;
32172;SDS011;18679;45.190;5.722;2022-12-07T00:54:25;13.35;;;5.80;;
32172;SDS011;18679;45.190;5.722;2022-12-07T00:57:26;15.88;;;6.45;;
32172;SDS011;18679;45.190;5.722;2022-12-07T01:00:27;19.65;;;6.82;;
32172;SDS011;18679;45.190;5.722;2022-12-07T01:03:28;20.25;;;7.18;;
32172;SDS011;18679;45.190;5.722;2022-12-07T01:06:30;16.38;;;5.28;;
32172;SDS011;18679;45.190;5.722;2022-12-07T01:09:31;18.63;;;7.22;;
32172;SDS011;18679;45.190;5.722;2022-12-07T01:12:32;21.25;;;7.18;;
32172;SDS011;18679;45.190;5.722;2022-12-07T01:15:33;19.27;;;6.53;;
32172;SDS011;18679;45.190;5.722;2022-12-07T01:18:35;15.73;;;6.15;;
32172;SDS011;18679;45.190;5.722;2022-12-07T01:21:36;14.43;;;5.38;;
32172;SDS011;18679;45.190;5.722;2022-12-07T01:24:39;16.88;;;7.35;;
32172;SDS011;18679;45.190;5.722;2022-12-07T01:27:40;18.15;;;6.13;;
32172;SDS011;18679;45.190;5.722;2022-12-07T01:30:41;15.15;;;6.53;;
32172;SDS011;18679;45.190;5.722;2022-12-07T01:33:43;14.30;;;5.80;;
32172;SDS011;18679;45.190;5.722;2022-12-07T01:36:47;16.08;;;6.05;;
32172;SDS011;18679;45.190;5.722;2022-12-07T01:39:48;14.35;;;6.50;;
32172;SDS011;18679;45.190;5.722;2022-12-07T01:42:50;13.00;;;5.88;;
32172;SDS011;18679;45.190;5.722;2022-12-07T01:45:51;19.73;;;5.60;;
32172;SDS011;18679;45.190;5.722;2022-12-07T01:48:52;20.25;;;7.72;;
32172;SDS011;18679;45.190;5.722;2022-12-07T01:51:56;17.38;;;6.82;;
32172;SDS011;18679;45.190;5.722;2022-12-07T01:55:06;14.52;;;6.60;;
32172;SDS011;18679;45.190;5.722;2022-12-07T01:58:09;18.23;;;7.65;;
32172;SDS011;18679;45.190;5.722;2022-12-07T02:01:11;14.02;;;5.95;;
32172;SDS011;18679;45.190;5.722;2022-12-07T02:04:13;12.07;;;5.88;;
32172;SDS011;18679;45.190;5.722;2022-12-07T02:07:14;15.82;;;6.05;;
32172;SDS011;18679;45.190;5.722;2022-12-07T02:10:26;17.13;;;7.28;;
32172;SDS011;18679;45.190;5.722;2022-12-07T02:13:30;16.10;;;6.25;;
32172;SDS011;18679;45.190;5.722;2022-12-07T02:16:44;17.63;;;6.53;;
32172;SDS011;18679;45.190;5.722;2022-12-07T02:30:02;17.35;;;6.63;;
32172;SDS011;18679;45.190;5.722;2022-12-07T02:33:11;15.50;;;6.57;;
32172;SDS011;18679;45.190;5.722;2022-12-07T02:36:20;15.40;;;6.75;;
32172;SDS011;18679;45.190;5.722;2022-12-07T02:39:32;14.95;;;6.55;;
32172;SDS011;18679;45.190;5.722;2022-12-07T02:42:50;13.18;;;5.07;;
32172;SDS011;18679;45.190;5.722;2022-12-07T02:46:22;15.23;;;6.60;;
32172;SDS011;18679;45.190;5.722;2022-12-07T02:49:23;16.13;;;6.30;;
32172;SDS011;18679;45.190;5.722;2022-12-07T02:52:26;15.27;;;6.75;;
32172;SDS011;18679;45.190;5.722;2022-12-07T02:55:28;15.45;;;6.78;;
32172;SDS011;18679;45.190;5.722;2022-12-07T03:01:57;16.73;;;6.38;;
32172;SDS011;18679;45.190;5.722;2022-12-07T03:11:45;15.15;;;6.13;;
32172;SDS011;18679;45.190;5.722;2022-12-07T03:14:59;15.27;;;6.50;;
32172;SDS011;18679;45.190;5.722;2022-12-07T03:18:08;12.30;;;4.30;;
32172;SDS011;18679;45.190;5.722;2022-12-07T03:21:16;13.52;;;5.82;;
32172;SDS011;18679;45.190;5.722;2022-12-07T03:24:21;14.50;;;6.00;;
32172;SDS011;18679;45.190;5.722;2022-12-07T03:27:31;18.00;;;6.50;;
32172;SDS011;18679;45.190;5.722;2022-12-07T03:30:47;18.13;;;7.07;;
32172;SDS011;18679;45.190;5.722;2022-12-07T03:37:27;13.35;;;5.15;;
32172;SDS011;18679;45.190;5.722;2022-12-07T03:40:35;18.02;;;6.72;;
32172;SDS011;18679;45.190;5.722;2022-12-07T03:43:42;16.98;;;6.85;;
32172;SDS011;18679;45.190;5.722;2022-12-07T03:49:54;22.77;;;6.78;;
32172;SDS011;18679;45.190;5.722;2022-12-07T03:53:08;14.55;;;6.25;;
32172;SDS011;18679;45.190;5.722;2022-12-07T03:56:15;16.23;;;6.68;;
32172;SDS011;18679;45.190;5.722;2022-12-07T03:59:16;13.30;;;6.90;;
32172;SDS011;18679;45.190;5.722;2022-12-07T04:02:18;16.85;;;7.05;;
32172;SDS011;18679;45.190;5.722;2022-12-07T04:05:20;17.70;;;7.07;;
32172;SDS011;18679;45.190;5.722;2022-12-07T04:08:21;17.48;;;5.45;;
32172;SDS011;18679;45.190;5.722;2022-12-07T04:11:22;24.00;;;6.57;;
32172;SDS011;18679;45.190;5.722;2022-12-07T04:14:23;15.32;;;6.30;;
32172;SDS011;18679;45.190;5.722;2022-12-07T04:17:24;17.42;;;6.47;;
32172;SDS011;18679;45.190;5.722;2022-12-07T04:20:25;16.00;;;6.30;;
32172;SDS011;18679;45.190;5.722;2022-12-07T04:23:25;15.48;;;6.60;;
32172;SDS011;18679;45.190;5.722;2022-12-07T04:26:26;15.23;;;5.75;;
32172;SDS011;18679;45.190;5.722;2022-12-07T04:29:28;20.02;;;7.28;;
32172;SDS011;18679;45.190;5.722;2022-12-07T04:32:29;14.10;;;6.03;;
32172;SDS011;18679;45.190;5.722;2022-12-07T04:35:30;19.48;;;7.28;;
32172;SDS011;18679;45.190;5.722;2022-12-07T04:38:31;15.45;;;6.25;;
32172;SDS011;18679;45.190;5.722;2022-12-07T04:41:32;14.70;;;5.57;;
32172;SDS011;18679;45.190;5.722;2022-12-07T04:44:33;18.95;;;7.35;;
32172;SDS011;18679;45.190;5.722;2022-12-07T04:47:34;17.27;;;7.45;;
32172;SDS011;18679;45.190;5.722;2022-12-07T04:50:35;18.65;;;7.30;;
32172;SDS011;18679;45.190;5.722;2022-12-07T04:53:38;16.48;;;6.50;;
32172;SDS011;18679;45.190;5.722;2022-12-07T04:56:39;12.65;;;6.00;;
32172;SDS011;18679;45.190;5.722;2022-12-07T04:59:40;13.98;;;5.88;;
32172;SDS011;18679;45.190;5.722;2022-12-07T05:02:41;14.70;;;6.40;;
32172;SDS011;18679;45.190;5.722;2022-12-07T05:05:42;19.20;;;6.88;;
32172;SDS011;18679;45.190;5.722;2022-12-07T05:08:43;12.45;;;5.43;;
32172;SDS011;18679;45.190;5.722;2022-12-07T05:11:43;12.10;;;5.60;;
32172;SDS011;18679;45.190;5.722;2022-12-07T05:14:44;26.48;;;6.88;;
32172;SDS011;18679;45.190;5.722;2022-12-07T05:17:46;14.52;;;6.47;;
32172;SDS011;18679;45.190;5.722;2022-12-07T05:20:48;20.85;;;6.50;;
32172;SDS011;18679;45.190;5.722;2022-12-07T05:23:49;18.52;;;6.82;;
32172;SDS011;18679;45.190;5.722;2022-12-07T05:26:50;14.45;;;6.15;;
32172;SDS011;18679;45.190;5.722;2022-12-07T05:29:51;15.20;;;6.82;;
32172;SDS011;18679;45.190;5.722;2022-12-07T05:32:52;19.63;;;7.60;;
32172;SDS011;18679;45.190;5.722;2022-12-07T05:35:53;12.77;;;5.82;;
32172;SDS011;18679;45.190;5.722;2022-12-07T05:38:54;10.82;;;5.88;;
32172;SDS011;18679;45.190;5.722;2022-12-07T05:41:55;14.77;;;6.82;;
32172;SDS011;18679;45.190;5.722;2022-12-07T05:45:14;17.60;;;6.07;;
32172;SDS011;18679;45.190;5.722;2022-12-07T05:48:15;14.40;;;6.57;;
32172;SDS011;18679;45.190;5.722;2022-12-07T05:51:15;18.85;;;6.20;;
32172;SDS011;18679;45.190;5.722;2022-12-07T05:54:16;12.18;;;5.97;;
32172;SDS011;18679;45.190;5.722;2022-12-07T05:57:18;20.63;;;7.57;;
32172;SDS011;18679;45.190;5.722;2022-12-07T06:00:19;18.40;;;6.65;;
32172;SDS011;18679;45.190;5.722;2022-12-07T06:03:20;17.10;;;8.02;;
32172;SDS011;18679;45.190;5.722;2022-12-07T06:06:21;20.50;;;6.35;;
32172;SDS011;18679;45.190;5.722;2022-12-07T06:09:22;17.20;;;7.10;;
32172;SDS011;18679;45.190;5.722;2022-12-07T06:12:24;16.33;;;6.63;;
32172;SDS011;18679;45.190;5.722;2022-12-07T06:15:37;17.38;;;7.43;;
32172;SDS011;18679;45.190;5.722;2022-12-07T06:18:38;20.35;;;9.35;;
32172;SDS011;18679;45.190;5.722;2022-12-07T06:21:39;16.65;;;7.78;;
32172;SDS011;18679;45.190;5.722;2022-12-07T06:24:40;18.48;;;7.40;;
32172;SDS011;18679;45.190;5.722;2022-12-07T06:27:41;21.08;;;7.10;;
32172;SDS011;18679;45.190;5.722;2022-12-07T06:30:42;16.60;;;6.63;;
32172;SDS011;18679;45.190;5.722;2022-12-07T06:33:44;22.90;;;7.88;;
32172;SDS011;18679;45.190;5.722;2022-12-07T06:36:45;18.45;;;6.65;;
32172;SDS011;18679;45.190;5.722;2022-12-07T06:39:51;19.42;;;6.72;;
32172;SDS011;18679;45.190;5.722;2022-12-07T06:42:52;18.27;;;7.53;;
32172;SDS011;18679;45.190;5.722;2022-12-07T06:45:53;17.60;;;6.63;;
32172;SDS011;18679;45.190;5.722;2022-12-07T06:48:54;17.20;;;6.97;;
32172;SDS011;18679;45.190;5.722;2022-12-07T06:51:55;16.88;;;6.15;;
32172;SDS011;18679;45.190;5.722;2022-12-07T06:54:58;15.95;;;6.97;;
32172;SDS011;18679;45.190;5.722;2022-12-07T06:57:59;16.50;;;7.20;;
32172;SDS011;18679;45.190;5.722;2022-12-07T07:01:01;17.83;;;8.10;;
32172;SDS011;18679;45.190;5.722;2022-12-07T07:04:03;18.35;;;7.75;;
32172;SDS011;18679;45.190;5.722;2022-12-07T07:07:05;17.02;;;6.45;;
32172;SDS011;18679;45.190;5.722;2022-12-07T07:10:07;19.15;;;6.40;;
32172;SDS011;18679;45.190;5.722;2022-12-07T07:13:09;26.13;;;7.90;;
32172;SDS011;18679;45.190;5.722;2022-12-07T07:16:10;18.55;;;6.80;;
32172;SDS011;18679;45.190;5.722;2022-12-07T07:19:11;13.02;;;6.07;;
32172;SDS011;18679;45.190;5.722;2022-12-07T07:22:12;20.95;;;7.60;;
32172;SDS011;18679;45.190;5.722;2022-12-07T07:25:13;15.75;;;6.72;;
32172;SDS011;18679;45.190;5.722;2022-12-07T07:28:14;17.77;;;7.00;;
32172;SDS011;18679;45.190;5.722;2022-12-07T07:31:15;17.02;;;8.38;;
32172;SDS011;18679;45.190;5.722;2022-12-07T07:34:16;21.58;;;7.60;;
32172;SDS011;18679;45.190;5.722;2022-12-07T07:37:17;19.83;;;7.10;;
32172;SDS011;18679;45.190;5.722;2022-12-07T07:40:18;18.60;;;6.70;;
32172;SDS011;18679;45.190;5.722;2022-12-07T07:43:19;17.15;;;6.80;;
32172;SDS011;18679;45.190;5.722;2022-12-07T07:46:20;13.90;;;6.05;;
32172;SDS011;18679;45.190;5.722;2022-12-07T07:49:21;14.48;;;6.38;;
32172;SDS011;18679;45.190;5.722;2022-12-07T07:52:22;12.88;;;7.03;;
32172;SDS011;18679;45.190;5.722;2022-12-07T07:55:23;14.52;;;5.65;;
32172;SDS011;18679;45.190;5.722;2022-12-07T07:58:24;20.02;;;6.22;;
32172;SDS011;18679;45.190;5.722;2022-12-07T08:01:25;24.88;;;8.20;;
32172;SDS011;18679;45.190;5.722;2022-12-07T08:04:26;20.00;;;7.13;;
32172;SDS011;18679;45.190;5.722;2022-12-07T08:07:27;15.13;;;6.70;;
32172;SDS011;18679;45.190;5.722;2022-12-07T08:10:28;18.88;;;7.32;;
32172;SDS011;18679;45.190;5.722;2022-12-07T08:13:29;19.35;;;7.28;;
32172;SDS011;18679;45.190;5.722;2022-12-07T08:16:30;13.10;;;6.10;;
32172;SDS011;18679;45.190;5.722;2022-12-07T08:19:31;14.32;;;5.82;;
32172;SDS011;18679;45.190;5.722;2022-12-07T08:22:32;15.90;;;6.10;;
32172;SDS011;18679;45.190;5.722;2022-12-07T08:25:34;13.65;;;6.00;;
32172;SDS011;18679;45.190;5.722;2022-12-07T08:28:35;18.67;;;8.05;;
32172;SDS011;18679;45.190;5.722;2022-12-07T08:31:36;15.02;;;7.18;;
32172;SDS011;18679;45.190;5.722;2022-12-07T08:34:37;15.85;;;7.53;;
32172;SDS011;18679;45.190;5.722;2022-12-07T08:37:38;16.90;;;6.07;;
32172;SDS011;18679;45.190;5.722;2022-12-07T08:40:40;13.90;;;6.53;;
32172;SDS011;18679;45.190;5.722;2022-12-07T08:43:41;16.17;;;7.35;;
32172;SDS011;18679;45.190;5.722;2022-12-07T08:46:44;27.73;;;7.93;;
32172;SDS011;18679;45.190;5.722;2022-12-07T08:49:50;22.85;;;7.63;;
32172;SDS011;18679;45.190;5.722;2022-12-07T08:52:54;19.92;;;7.20;;
32172;SDS011;18679;45.190;5.722;2022-12-07T08:55:57;23.40;;;7.63;;
32172;SDS011;18679;45.190;5.722;2022-12-07T08:58:58;14.90;;;7.20;;
32172;SDS011;18679;45.190;5.722;2022-12-07T09:01:59;17.83;;;7.53;;
32172;SDS011;18679;45.190;5.722;2022-12-07T09:05:00;24.60;;;8.13;;
32172;SDS011;18679;45.190;5.722;2022-12-07T09:08:01;18.17;;;6.85;;
32172;SDS011;18679;45.190;5.722;2022-12-07T09:11:03;22.38;;;7.78;;
32172;SDS011;18679;45.190;5.722;2022-12-07T09:14:04;18.98;;;6.82;;
32172;SDS011;18679;45.190;5.722;2022-12-07T09:17:07;16.33;;;6.78;;
32172;SDS011;18679;45.190;5.722;2022-12-07T09:20:09;16.38;;;6.95;;
32172;SDS011;18679;45.190;5.722;2022-12-07T09:23:10;18.00;;;7.45;;
32172;SDS011;18679;45.190;5.722;2022-12-07T09:26:11;19.92;;;7.22;;
32172;SDS011;18679;45.190;5.722;2022-12-07T09:29:12;31.58;;;7.85;;
32172;SDS011;18679;45.190;5.722;2022-12-07T09:32:13;19.17;;;6.68;;
32172;SDS011;18679;45.190;5.722;2022-12-07T09:35:14;17.08;;;7.35;;
32172;SDS011;18679;45.190;5.722;2022-12-07T09:38:15;20.17;;;7.30;;
32172;SDS011;18679;45.190;5.722;2022-12-07T09:41:17;18.00;;;6.20;;
32172;SDS011;18679;45.190;5.722;2022-12-07T09:44:23;19.75;;;7.38;;
32172;SDS011;18679;45.190;5.722;2022-12-07T09:47:26;14.55;;;7.07;;
32172;SDS011;18679;45.190;5.722;2022-12-07T09:50:29;14.90;;;7.43;;
32172;SDS011;18679;45.190;5.722;2022-12-07T09:53:33;27.33;;;7.95;;
32172;SDS011;18679;45.190;5.722;2022-12-07T09:56:38;17.03;;;6.03;;
32172;SDS011;18679;45.190;5.722;2022-12-07T09:59:39;16.30;;;7.10;;
32172;SDS011;18679;45.190;5.722;2022-12-07T10:02:42;17.75;;;7.13;;
32172;SDS011;18679;45.190;5.722;2022-12-07T10:05:46;20.52;;;8.10;;
32172;SDS011;18679;45.190;5.722;2022-12-07T10:08:50;18.60;;;7.72;;
32172;SDS011;18679;45.190;5.722;2022-12-07T10:12:10;19.65;;;7.95;;
32172;SDS011;18679;45.190;5.722;2022-12-07T10:15:12;19.98;;;8.25;;
32172;SDS011;18679;45.190;5.722;2022-12-07T10:18:28;23.45;;;8.15;;
32172;SDS011;18679;45.190;5.722;2022-12-07T10:21:36;24.83;;;8.00;;
32172;SDS011;18679;45.190;5.722;2022-12-07T10:24:38;13.07;;;6.93;;
32172;SDS011;18679;45.190;5.722;2022-12-07T10:27:42;20.02;;;7.22;;
32172;SDS011;18679;45.190;5.722;2022-12-07T10:30:47;17.98;;;8.45;;
32172;SDS011;18679;45.190;5.722;2022-12-07T10:34:03;19.33;;;8.05;;
32172;SDS011;18679;45.190;5.722;2022-12-07T10:40:31;19.85;;;8.13;;
32172;SDS011;18679;45.190;5.722;2022-12-07T10:43:34;31.83;;;7.88;;
32172;SDS011;18679;45.190;5.722;2022-12-07T10:50:14;22.10;;;8.63;;
32172;SDS011;18679;45.190;5.722;2022-12-07T11:07:33;20.33;;;7.60;;
32172;SDS011;18679;45.190;5.722;2022-12-07T11:17:13;20.10;;;8.07;;
32172;SDS011;18679;45.190;5.722;2022-12-07T11:23:56;20.15;;;7.50;;
32172;SDS011;18679;45.190;5.722;2022-12-07T11:27:33;18.35;;;7.40;;
32172;SDS011;18679;45.190;5.722;2022-12-07T11:34:29;19.48;;;7.57;;
32172;SDS011;18679;45.190;5.722;2022-12-07T11:37:57;16.75;;;7.15;;
32172;SDS011;18679;45.190;5.722;2022-12-07T11:41:08;16.73;;;6.25;;
32172;SDS011;18679;45.190;5.722;2022-12-07T11:47:47;18.58;;;7.53;;
32172;SDS011;18679;45.190;5.722;2022-12-07T11:50:54;16.17;;;7.57;;
32172;SDS011;18679;45.190;5.722;2022-12-07T11:54:03;21.75;;;7.60;;
32172;SDS011;18679;45.190;5.722;2022-12-07T11:57:15;20.33;;;7.43;;
32172;SDS011;18679;45.190;5.722;2022-12-07T12:00:31;20.92;;;9.00;;
32172;SDS011;18679;45.190;5.722;2022-12-07T12:03:34;21.85;;;8.15;;
32172;SDS011;18679;45.190;5.722;2022-12-07T12:06:42;21.88;;;7.60;;
32172;SDS011;18679;45.190;5.722;2022-12-07T12:09:58;19.50;;;8.20;;
32172;SDS011;18679;45.190;5.722;2022-12-07T12:13:14;22.75;;;7.75;;
32172;SDS011;18679;45.190;5.722;2022-12-07T12:27:03;17.30;;;7.90;;
32172;SDS011;18679;45.190;5.722;2022-12-07T12:30:23;17.45;;;7.35;;
32172;SDS011;18679;45.190;5.722;2022-12-07T12:33:29;16.95;;;8.18;;
32172;SDS011;18679;45.190;5.722;2022-12-07T12:39:35;22.20;;;9.63;;
32172;SDS011;18679;45.190;5.722;2022-12-07T12:42:49;24.48;;;9.13;;
32172;SDS011;18679;45.190;5.722;2022-12-07T12:45:54;29.60;;;8.57;;
32172;SDS011;18679;45.190;5.722;2022-12-07T12:49:35;20.67;;;8.27;;
32172;SDS011;18679;45.190;5.722;2022-12-07T12:58:42;21.75;;;8.48;;
32172;SDS011;18679;45.190;5.722;2022-12-07T13:01:46;22.30;;;8.55;;
32172;SDS011;18679;45.190;5.722;2022-12-07T13:04:50;20.85;;;7.57;;
32172;SDS011;18679;45.190;5.722;2022-12-07T13:08:02;22.85;;;9.00;;
32172;SDS011;18679;45.190;5.722;2022-12-07T13:20:51;18.05;;;7.03;;
32172;SDS011;18679;45.190;5.722;2022-12-07T13:24:06;15.13;;;6.93;;
32172;SDS011;18679;45.190;5.722;2022-12-07T13:27:09;14.27;;;7.80;;
32172;SDS011;18679;45.190;5.722;2022-12-07T13:30:17;19.67;;;8.10;;
32172;SDS011;18679;45.190;5.722;2022-12-07T13:33:19;18.67;;;7.78;;
32172;SDS011;18679;45.190;5.722;2022-12-07T13:36:24;20.10;;;7.55;;
32172;SDS011;18679;45.190;5.722;2022-12-07T13:39:35;18.70;;;6.90;;
32172;SDS011;18679;45.190;5.722;2022-12-07T13:43:01;18.38;;;7.78;;
32172;SDS011;18679;45.190;5.722;2022-12-07T13:46:06;18.25;;;8.30;;
32172;SDS011;18679;45.190;5.722;2022-12-07T13:49:23;21.58;;;8.80;;
32172;SDS011;18679;45.190;5.722;2022-12-07T13:52:29;26.10;;;9.30;;
32172;SDS011;18679;45.190;5.722;2022-12-07T13:55:32;16.38;;;7.28;;
32172;SDS011;18679;45.190;5.722;2022-12-07T13:58:34;18.75;;;7.78;;
32172;SDS011;18679;45.190;5.722;2022-12-07T14:01:36;22.33;;;8.15;;
32172;SDS011;18679;45.190;5.722;2022-12-07T14:04:37;18.73;;;7.65;;
32172;SDS011;18679;45.190;5.722;2022-12-07T14:07:55;16.88;;;7.47;;
32172;SDS011;18679;45.190;5.722;2022-12-07T14:11:01;16.58;;;6.57;;
32172;SDS011;18679;45.190;5.722;2022-12-07T14:14:02;18.75;;;7.80;;
32172;SDS011;18679;45.190;5.722;2022-12-07T14:17:12;15.43;;;6.70;;
32172;SDS011;18679;45.190;5.722;2022-12-07T14:23:34;18.63;;;7.95;;
32172;SDS011;18679;45.190;5.722;2022-12-07T14:26:37;18.00;;;8.10;;
32172;SDS011;18679;45.190;5.722;2022-12-07T14:29:40;19.83;;;8.27;;
32172;SDS011;18679;45.190;5.722;2022-12-07T14:32:41;17.23;;;6.28;;
32172;SDS011;18679;45.190;5.722;2022-12-07T14:35:43;20.15;;;7.72;;
32172;SDS011;18679;45.190;5.722;2022-12-07T14:38:45;23.65;;;8.70;;
32172;SDS011;18679;45.190;5.722;2022-12-07T14:41:46;19.58;;;7.05;;
32172;SDS011;18679;45.190;5.722;2022-12-07T14:44:53;21.60;;;7.97;;
32172;SDS011;18679;45.190;5.722;2022-12-07T14:47:54;16.98;;;6.90;;
32172;SDS011;18679;45.190;5.722;2022-12-07T14:50:55;19.60;;;7.70;;
32172;SDS011;18679;45.190;5.722;2022-12-07T14:53:56;18.83;;;7.40;;
32172;SDS011;18679;45.190;5.722;2022-12-07T14:56:57;15.02;;;6.93;;
32172;SDS011;18679;45.190;5.722;2022-12-07T14:59:58;20.67;;;8.25;;
32172;SDS011;18679;45.190;5.722;2022-12-07T15:02:59;19.55;;;7.55;;
32172;SDS011;18679;45.190;5.722;2022-12-07T15:06:00;16.27;;;7.53;;
32172;SDS011;18679;45.190;5.722;2022-12-07T15:09:02;23.23;;;8.65;;
32172;SDS011;18679;45.190;5.722;2022-12-07T15:12:03;17.63;;;7.45;;
32172;SDS011;18679;45.190;5.722;2022-12-07T15:15:04;20.65;;;8.35;;
32172;SDS011;18679;45.190;5.722;2022-12-07T15:18:06;20.25;;;7.30;;
32172;SDS011;18679;45.190;5.722;2022-12-07T15:21:10;15.20;;;6.32;;
32172;SDS011;18679;45.190;5.722;2022-12-07T15:24:14;19.42;;;6.65;;
32172;SDS011;18679;45.190;5.722;2022-12-07T15:27:15;18.30;;;6.97;;
32172;SDS011;18679;45.190;5.722;2022-12-07T15:30:16;27.50;;;9.70;;
32172;SDS011;18679;45.190;5.722;2022-12-07T15:33:17;25.27;;;10.52;;
32172;SDS011;18679;45.190;5.722;2022-12-07T15:36:19;21.25;;;8.55;;
32172;SDS011;18679;45.190;5.722;2022-12-07T15:39:25;15.98;;;6.95;;
32172;SDS011;18679;45.190;5.722;2022-12-07T15:42:26;18.77;;;7.13;;
32172;SDS011;18679;45.190;5.722;2022-12-07T15:45:27;19.17;;;8.20;;
32172;SDS011;18679;45.190;5.722;2022-12-07T15:48:28;23.80;;;8.13;;
32172;SDS011;18679;45.190;5.722;2022-12-07T15:51:30;22.83;;;9.05;;
32172;SDS011;18679;45.190;5.722;2022-12-07T15:54:34;17.05;;;8.13;;
32172;SDS011;18679;45.190;5.722;2022-12-07T15:57:36;18.88;;;8.63;;
32172;SDS011;18679;45.190;5.722;2022-12-07T16:00:38;20.20;;;8.10;;
32172;SDS011;18679;45.190;5.722;2022-12-07T16:03:39;18.85;;;6.95;;
32172;SDS011;18679;45.190;5.722;2022-12-07T16:06:40;15.98;;;7.15;;
32172;SDS011;18679;45.190;5.722;2022-12-07T16:09:44;21.35;;;6.63;;
32172;SDS011;18679;45.190;5.722;2022-12-07T16:12:46;17.00;;;6.05;;
32172;SDS011;18679;45.190;5.722;2022-12-07T16:15:47;20.58;;;7.18;;
32172;SDS011;18679;45.190;5.722;2022-12-07T16:18:49;22.23;;;7.65;;
32172;SDS011;18679;45.190;5.722;2022-12-07T16:21:51;17.48;;;7.25;;
32172;SDS011;18679;45.190;5.722;2022-12-07T16:24:52;14.23;;;6.90;;
32172;SDS011;18679;45.190;5.722;2022-12-07T16:27:53;18.73;;;7.10;;
32172;SDS011;18679;45.190;5.722;2022-12-07T16:31:03;21.58;;;7.20;;
32172;SDS011;18679;45.190;5.722;2022-12-07T16:34:07;21.40;;;8.45;;
32172;SDS011;18679;45.190;5.722;2022-12-07T16:37:08;26.17;;;7.00;;
32172;SDS011;18679;45.190;5.722;2022-12-07T16:40:10;16.95;;;6.80;;
32172;SDS011;18679;45.190;5.722;2022-12-07T16:43:11;22.67;;;7.45;;
32172;SDS011;18679;45.190;5.722;2022-12-07T16:46:14;13.98;;;6.18;;
32172;SDS011;18679;45.190;5.722;2022-12-07T16:49:16;23.30;;;7.55;;
32172;SDS011;18679;45.190;5.722;2022-12-07T16:52:19;28.33;;;9.10;;
32172;SDS011;18679;45.190;5.722;2022-12-07T16:55:20;24.17;;;9.70;;
32172;SDS011;18679;45.190;5.722;2022-12-07T16:58:21;22.10;;;8.70;;
32172;SDS011;18679;45.190;5.722;2022-12-07T17:01:22;23.63;;;8.73;;
32172;SDS011;18679;45.190;5.722;2022-12-07T17:04:23;22.23;;;9.02;;
32172;SDS011;18679;45.190;5.722;2022-12-07T17:07:24;28.95;;;11.65;;
32172;SDS011;18679;45.190;5.722;2022-12-07T17:10:25;37.00;;;11.70;;
32172;SDS011;18679;45.190;5.722;2022-12-07T17:13:26;32.05;;;11.57;;
32172;SDS011;18679;45.190;5.722;2022-12-07T17:16:47;17.58;;;7.22;;
32172;SDS011;18679;45.190;5.722;2022-12-07T17:19:50;20.00;;;8.40;;
32172;SDS011;18679;45.190;5.722;2022-12-07T17:22:51;19.30;;;7.20;;
32172;SDS011;18679;45.190;5.722;2022-12-07T17:25:53;23.52;;;8.77;;
32172;SDS011;18679;45.190;5.722;2022-12-07T17:28:53;21.48;;;8.27;;
32172;SDS011;18679;45.190;5.722;2022-12-07T17:31:55;26.92;;;11.45;;
32172;SDS011;18679;45.190;5.722;2022-12-07T17:34:57;25.23;;;9.10;;
32172;SDS011;18679;45.190;5.722;2022-12-07T17:37:58;23.02;;;9.23;;
32172;SDS011;18679;45.190;5.722;2022-12-07T17:40:59;20.63;;;8.85;;
32172;SDS011;18679;45.190;5.722;2022-12-07T17:44:00;23.08;;;10.40;;
32172;SDS011;18679;45.190;5.722;2022-12-07T17:47:01;19.83;;;8.43;;
32172;SDS011;18679;45.190;5.722;2022-12-07T17:50:03;19.38;;;7.40;;
32172;SDS011;18679;45.190;5.722;2022-12-07T17:53:09;24.02;;;9.63;;
32172;SDS011;18679;45.190;5.722;2022-12-07T17:56:11;17.85;;;7.40;;
32172;SDS011;18679;45.190;5.722;2022-12-07T17:59:12;19.95;;;6.85;;
32172;SDS011;18679;45.190;5.722;2022-12-07T18:02:13;20.00;;;7.35;;
32172;SDS011;18679;45.190;5.722;2022-12-07T18:05:14;27.23;;;11.63;;
32172;SDS011;18679;45.190;5.722;2022-12-07T18:08:16;43.05;;;16.42;;
32172;SDS011;18679;45.190;5.722;2022-12-07T18:11:18;23.98;;;9.90;;
32172;SDS011;18679;45.190;5.722;2022-12-07T18:14:18;19.10;;;7.32;;
32172;SDS011;18679;45.190;5.722;2022-12-07T18:17:20;19.77;;;8.20;;
32172;SDS011;18679;45.190;5.722;2022-12-07T18:20:21;15.15;;;6.80;;
32172;SDS011;18679;45.190;5.722;2022-12-07T18:23:22;20.13;;;8.00;;
32172;SDS011;18679;45.190;5.722;2022-12-07T18:26:24;29.65;;;10.55;;
32172;SDS011;18679;45.190;5.722;2022-12-07T18:29:25;21.83;;;8.77;;
32172;SDS011;18679;45.190;5.722;2022-12-07T18:32:26;20.13;;;7.95;;
32172;SDS011;18679;45.190;5.722;2022-12-07T18:35:30;19.95;;;8.77;;
32172;SDS011;18679;45.190;5.722;2022-12-07T18:38:33;19.83;;;8.27;;
32172;SDS011;18679;45.190;5.722;2022-12-07T18:41:36;25.17;;;8.95;;
32172;SDS011;18679;45.190;5.722;2022-12-07T18:44:38;20.70;;;7.53;;
32172;SDS011;18679;45.190;5.722;2022-12-07T18:47:39;23.45;;;7.10;;
32172;SDS011;18679;45.190;5.722;2022-12-07T18:50:41;22.90;;;8.15;;
32172;SDS011;18679;45.190;5.722;2022-12-07T18:53:43;21.15;;;9.52;;
32172;SDS011;18679;45.190;5.722;2022-12-07T18:56:44;36.58;;;14.93;;
32172;SDS011;18679;45.190;5.722;2022-12-07T18:59:45;34.05;;;12.73;;
32172;SDS011;18679;45.190;5.722;2022-12-07T19:02:46;26.20;;;10.23;;
32172;SDS011;18679;45.190;5.722;2022-12-07T19:05:47;32.47;;;10.68;;
32172;SDS011;18679;45.190;5.722;2022-12-07T19:08:47;17.17;;;8.57;;
32172;SDS011;18679;45.190;5.722;2022-12-07T19:11:48;35.20;;;11.15;;
32172;SDS011;18679;45.190;5.722;2022-12-07T19:14:49;21.17;;;7.90;;
32172;SDS011;18679;45.190;5.722;2022-12-07T19:17:50;21.17;;;8.60;;
32172;SDS011;18679;45.190;5.722;2022-12-07T19:20:52;24.10;;;9.13;;
32172;SDS011;18679;45.190;5.722;2022-12-07T19:23:53;19.33;;;7.50;;
32172;SDS011;18679;45.190;5.722;2022-12-07T19:26:54;24.38;;;9.40;;
32172;SDS011;18679;45.190;5.722;2022-12-07T19:29:55;24.95;;;8.88;;
32172;SDS011;18679;45.190;5.722;2022-12-07T19:32:57;25.25;;;9.52;;
32172;SDS011;18679;45.190;5.722;2022-12-07T19:35:59;30.70;;;10.20;;
32172;SDS011;18679;45.190;5.722;2022-12-07T19:39:00;32.03;;;13.70;;
32172;SDS011;18679;45.190;5.722;2022-12-07T19:42:02;35.25;;;11.32;;
32172;SDS011;18679;45.190;5.722;2022-12-07T19:45:03;19.98;;;8.85;;
32172;SDS011;18679;45.190;5.722;2022-12-07T19:48:06;28.17;;;11.73;;